Time;durP1;ratioP1;P1;durP2;ratioP2;P2;SDS_P1;SDS_P2;PMS_P1;PMS_P2;Temp;Humidity;BMP_temperature;BMP_pressure;BME280_temperature;BME280_humidity;BME280_pressure;Samples;Min_cycle;Max_cycle;Signal;HPM_P1;HPM_P2
2023/01/02 00:01:08;;;;;;;44.72;23.45;;;;;;;10.21;59.74;100751.31;4324429;33;20152;-85
2023/01/02 00:03:34;;;;;;;50.20;25.65;;;;;;;10.19;59.75;100750.44;4305665;33;20099;-84
2023/01/02 00:06:03;;;;;;;51.00;23.80;;;;;;;10.15;59.73;100758.28;4305256;33;20147;-85
2023/01/02 00:08:28;;;;;;;46.45;24.37;;;;;;;9.84;59.72;100757.84;4327369;33;20104;-85
2023/01/02 00:10:54;;;;;;;52.03;25.48;;;;;;;9.77;59.72;100760.53;4301146;33;20166;-85
2023/01/02 00:13:19;;;;;;;48.22;24.37;;;;;;;9.64;59.71;100751.16;4318995;33;20878;-85
2023/01/02 00:15:45;;;;;;;50.15;25.42;;;;;;;9.72;59.72;100752.81;4304806;33;21027;-84
2023/01/02 00:18:10;;;;;;;49.13;23.60;;;;;;;9.72;59.71;100746.75;4314909;33;20204;-85
2023/01/02 00:20:35;;;;;;;48.03;23.52;;;;;;;9.66;59.72;100749.41;4296141;33;20151;-85
2023/01/02 00:23:01;;;;;;;48.95;23.40;;;;;;;9.66;59.72;100745.06;4305173;33;20365;-85
2023/01/02 00:25:26;;;;;;;49.92;24.87;;;;;;;9.51;59.70;100742.66;4299014;33;20111;-85
2023/01/02 00:27:52;;;;;;;50.30;24.73;;;;;;;9.47;59.70;100744.44;4319964;33;20399;-84
2023/01/02 00:30:17;;;;;;;45.05;23.38;;;;;;;9.65;59.72;100737.28;4319700;33;20461;-85
2023/01/02 00:32:42;;;;;;;43.87;22.98;;;;;;;9.62;59.71;100739.94;4331660;33;20523;-85
2023/01/02 00:35:08;;;;;;;48.78;24.27;;;;;;;9.56;59.70;100743.47;4319606;33;20183;-84
2023/01/02 00:37:33;;;;;;;52.20;24.08;;;;;;;9.48;59.70;100756.56;4308473;33;20179;-84
2023/01/02 00:39:59;;;;;;;45.92;23.12;;;;;;;9.59;59.71;100748.63;4308688;33;20726;-84
2023/01/02 00:42:24;;;;;;;44.67;22.80;;;;;;;9.53;59.70;100756.50;4314607;33;20144;-84
2023/01/02 00:44:49;;;;;;;44.30;23.58;;;;;;;9.51;59.70;100753.06;4287090;33;20115;-85
2023/01/02 00:47:15;;;;;;;46.05;23.87;;;;;;;9.46;59.70;100745.31;4318374;33;20143;-84
2023/01/02 00:49:40;;;;;;;46.60;23.42;;;;;;;9.47;59.70;100747.03;4293004;33;20183;-85
2023/01/02 00:52:06;;;;;;;49.25;24.58;;;;;;;9.42;59.70;100751.41;4326693;33;20132;-85
2023/01/02 00:54:31;;;;;;;49.60;24.05;;;;;;;9.33;59.69;100766.25;4284577;33;20080;-83
2023/01/02 00:56:56;;;;;;;46.13;22.40;;;;;;;9.36;59.70;100756.69;4317252;33;20124;-84
2023/01/02 00:59:22;;;;;;;49.67;22.17;;;;;;;9.26;59.69;100756.81;4295115;33;20202;-84
2023/01/02 01:01:47;;;;;;;48.60;25.17;;;;;;;9.29;59.70;100755.03;4308085;33;20104;-85
2023/01/02 01:04:13;;;;;;;44.05;23.38;;;;;;;9.26;59.69;100756.81;4324855;33;20136;-85
2023/01/02 01:06:39;;;;;;;67.78;29.63;;;;;;;9.32;59.69;100749.81;4317749;33;20111;-85
2023/01/02 01:09:04;;;;;;;59.40;29.00;;;;;;;9.23;59.69;100747.31;4285195;33;20194;-85
2023/01/02 01:11:30;;;;;;;60.12;28.15;;;;;;;9.22;59.69;100750.75;4309854;33;20176;-85
2023/01/02 01:13:55;;;;;;;57.60;27.10;;;;;;;9.24;59.69;100749.03;4319825;33;20111;-85
2023/01/02 01:16:21;;;;;;;47.95;23.38;;;;;;;9.43;59.70;100749.66;4319409;33;20147;-85
2023/01/02 01:18:46;;;;;;;64.65;23.17;;;;;;;9.22;59.69;100751.63;4305850;33;20126;-85
2023/01/02 01:21:19;;;;;;;48.05;22.27;;;;;;;9.32;59.69;100752.41;4288234;33;20148;-85
2023/01/02 01:23:48;;;;;;;161.52;24.58;;;;;;;9.01;59.68;100754.47;4294046;33;20088;-86
2023/01/02 01:26:14;;;;;;;92.62;21.23;;;;;;;8.96;59.67;100752.75;4315696;33;20108;-85
2023/01/02 01:28:39;;;;;;;79.35;21.10;;;;;;;8.74;59.66;100759.88;4313707;33;24539;-85
2023/01/02 01:31:06;;;;;;;45.15;20.12;;;;;;;8.74;59.67;100752.94;4288763;33;20429;-85
2023/01/02 01:33:32;;;;;;;42.03;21.77;;;;;;;8.64;59.65;100753.06;4305030;33;20107;-85
2023/01/02 01:36:10;;;;;;;41.25;21.20;;;;;;;8.51;59.66;100752.28;4302756;33;20100;-85
2023/01/02 01:38:36;;;;;;;222.65;26.10;;;;;;;8.50;59.64;100741.03;4304678;33;20465;-85
2023/01/02 01:41:01;;;;;;;77.00;23.02;;;;;;;8.40;59.65;100739.38;4307299;33;20084;-86
2023/01/02 01:43:49;;;;;;;49.83;20.55;;;;;;;8.41;59.65;100732.47;4312237;33;20434;-84
2023/01/02 01:46:43;;;;;;;173.65;24.85;;;;;;;8.52;59.64;100715.09;4326614;33;20108;-85
2023/01/02 01:49:17;;;;;;;86.00;23.02;;;;;;;8.51;59.64;100718.53;4319882;33;20622;-85
2023/01/02 01:51:49;;;;;;;188.05;24.92;;;;;;;8.41;59.64;100717.75;4332984;33;20087;-85
2023/01/02 01:54:16;;;;;;;67.82;22.60;;;;;;;8.54;59.65;100721.13;4327290;33;20088;-85
2023/01/02 01:56:44;;;;;;;87.65;22.52;;;;;;;8.38;59.65;100711.75;4304666;33;20209;-85
2023/01/02 01:59:10;;;;;;;72.55;22.33;;;;;;;8.37;59.64;100707.44;4317134;33;20230;-85
2023/01/02 02:01:36;;;;;;;51.20;23.83;;;;;;;8.40;59.65;100697.03;4289806;33;20203;-84
2023/01/02 02:04:01;;;;;;;52.13;23.77;;;;;;;8.37;59.65;100700.50;4286112;33;20111;-85
2023/01/02 02:06:26;;;;;;;69.32;25.95;;;;;;;8.46;59.65;100708.19;4331225;33;20178;-84
2023/01/02 02:09:18;;;;;;;50.20;23.17;;;;;;;8.49;59.65;100699.53;4331655;33;20146;-85
2023/01/02 02:11:43;;;;;;;63.78;23.98;;;;;;;8.54;59.65;100703.84;4306130;33;20877;-86
2023/01/02 02:14:09;;;;;;;73.82;25.58;;;;;;;8.72;59.66;100694.13;4286978;33;20161;-85
2023/01/02 02:16:54;;;;;;;90.07;25.55;;;;;;;8.81;59.66;100689.72;4308762;33;20146;-85
2023/01/02 02:19:41;;;;;;;113.68;27.15;;;;;;;8.87;59.67;100691.41;4297880;33;20096;-85
2023/01/02 02:22:40;;;;;;;296.50;30.17;;;;;;;8.86;59.67;100687.09;4318377;33;20091;-86
2023/01/02 02:25:53;;;;;;;146.32;28.17;;;;;;;9.19;59.68;100683.25;4305071;33;20088;-85
2023/01/02 02:28:43;;;;;;;95.07;25.15;;;;;;;8.96;59.67;100674.84;4285746;33;20537;-85
2023/01/02 02:31:29;;;;;;;202.65;28.02;;;;;;;9.06;59.68;100671.31;4315340;33;20704;-84
2023/01/02 02:33:57;;;;;;;222.40;27.52;;;;;;;9.32;59.69;100660.59;4310672;33;20156;-86
2023/01/02 02:36:31;;;;;;;208.05;25.73;;;;;;;9.21;59.69;100668.50;4315854;33;20169;-85
2023/01/02 02:39:12;;;;;;;208.35;27.08;;;;;;;9.35;59.70;100670.97;4321202;33;20104;-84
2023/01/02 02:41:37;;;;;;;377.10;30.70;;;;;;;9.41;59.70;100674.34;4324451;33;20922;-85
2023/01/02 02:44:09;;;;;;;200.27;26.98;;;;;;;9.32;59.69;100671.84;4320776;33;20119;-85
2023/01/02 02:46:37;;;;;;;271.15;32.00;;;;;;;9.43;59.71;100682.09;4324560;33;20132;-84
2023/01/02 02:49:33;;;;;;;253.40;27.90;;;;;;;9.56;59.70;100673.28;4315876;33;20096;-85
2023/01/02 02:52:20;;;;;;;93.03;24.23;;;;;;;9.51;59.71;100677.69;4321486;33;20182;-85
2023/01/02 02:54:51;;;;;;;181.12;26.08;;;;;;;9.40;59.70;100676.94;4311733;33;20126;-86
2023/01/02 02:57:16;;;;;;;251.85;28.60;;;;;;;9.58;59.71;100673.25;4317903;33;20138;-86
2023/01/02 02:59:42;;;;;;;183.12;26.40;;;;;;;9.51;59.71;100670.75;4323485;33;20534;-86
2023/01/02 03:02:08;;;;;;;258.25;30.65;;;;;;;9.64;59.72;100671.44;4314274;33;20103;-86
2023/01/02 03:04:34;;;;;;;174.87;26.12;;;;;;;9.51;59.70;100665.56;4292825;33;20176;-86
2023/01/02 03:07:10;;;;;;;264.05;29.77;;;;;;;9.69;59.71;100655.75;4320185;33;20170;-84
2023/01/02 03:09:48;;;;;;;92.22;26.17;;;;;;;9.51;59.70;100655.16;4331125;33;20111;-84
2023/01/02 03:12:31;;;;;;;176.10;26.33;;;;;;;9.62;59.71;100662.81;4316004;33;20139;-84
2023/01/02 03:15:07;;;;;;;240.68;29.20;;;;;;;9.45;59.70;100655.22;4306716;33;20088;-84
2023/01/02 03:17:52;;;;;;;110.37;25.23;;;;;;;9.53;59.71;100658.59;4318477;33;20126;-83
2023/01/02 03:20:18;;;;;;;64.87;23.75;;;;;;;9.67;59.71;100660.13;4326518;33;20116;-84
2023/01/02 03:22:45;;;;;;;170.27;27.62;;;;;;;9.58;59.71;100657.66;4298075;33;20171;-85
2023/01/02 03:25:11;;;;;;;175.45;26.65;;;;;;;9.56;59.70;100662.88;4307831;33;20152;-84
2023/01/02 03:27:37;;;;;;;74.00;24.33;;;;;;;9.50;59.71;100650.84;4310956;33;20140;-85
2023/01/02 03:30:17;;;;;;;281.40;30.08;;;;;;;9.70;59.71;100653.19;4319576;33;20119;-84
2023/01/02 03:33:05;;;;;;;227.37;30.67;;;;;;;9.77;59.72;100651.34;4324027;33;20107;-85
2023/01/02 03:35:40;;;;;;;129.65;29.17;;;;;;;9.74;59.72;100647.03;4332435;33;20275;-84
2023/01/02 03:38:07;;;;;;;81.15;25.88;;;;;;;9.75;59.72;100647.91;4307734;33;20100;-84
2023/01/02 03:40:43;;;;;;;98.10;25.23;;;;;;;9.90;59.73;100652.88;4310236;33;20103;-85
2023/01/02 03:43:10;;;;;;;160.00;29.12;;;;;;;9.99;59.73;100652.75;4294185;33;20100;-86
2023/01/02 03:45:37;;;;;;;107.90;27.90;;;;;;;10.15;59.74;100651.59;4316230;33;20438;-85
2023/01/02 03:48:21;;;;;;;118.13;29.45;;;;;;;10.15;59.74;100645.53;4297789;33;20114;-85
2023/01/02 03:50:51;;;;;;;104.43;29.75;;;;;;;10.32;59.75;100638.34;4309008;33;20091;-85
2023/01/02 03:53:17;;;;;;;185.30;29.85;;;;;;;10.13;59.74;100645.56;4323471;33;20108;-84
2023/01/02 03:55:47;;;;;;;88.72;27.62;;;;;;;10.13;59.74;100657.72;4294736;33;20146;-85
2023/01/02 03:58:41;;;;;;;104.20;29.12;;;;;;;10.33;59.76;100652.22;4308420;33;20569;-84
2023/01/02 04:01:09;;;;;;;105.07;27.77;;;;;;;10.33;59.76;100652.22;4298189;33;20462;-85
2023/01/02 04:03:55;;;;;;;269.85;31.75;;;;;;;10.24;59.74;100657.59;4317815;33;20130;-83
2023/01/02 04:06:23;;;;;;;154.57;29.60;;;;;;;10.29;59.74;100654.03;4310153;33;20099;-85
2023/01/02 04:08:53;;;;;;;116.55;27.27;;;;;;;10.28;59.74;100654.06;4308282;33;20140;-85
2023/01/02 04:11:19;;;;;;;137.40;27.17;;;;;;;10.30;59.74;100653.13;4314796;33;20107;-85
2023/01/02 04:13:47;;;;;;;178.15;29.02;;;;;;;10.40;59.75;100656.44;4284527;33;20096;-85
2023/01/02 04:16:15;;;;;;;72.12;26.80;;;;;;;10.34;59.75;100656.53;4314551;33;20894;-86
2023/01/02 04:19:06;;;;;;;107.87;27.02;;;;;;;10.40;59.75;100656.44;4310978;33;20122;-86
2023/01/02 04:21:33;;;;;;;78.60;27.52;;;;;;;10.37;59.75;100653.87;4319331;33;20088;-86
2023/01/02 04:24:12;;;;;;;139.70;28.23;;;;;;;10.43;59.75;100654.66;4294341;33;20143;-85
2023/01/02 04:26:46;;;;;;;100.33;26.57;;;;;;;10.34;59.75;100649.59;4319466;33;20479;-87
2023/01/02 04:29:11;;;;;;;143.55;28.42;;;;;;;10.20;59.74;100661.97;4320947;33;20169;-87
2023/01/02 04:31:48;;;;;;;148.75;27.85;;;;;;;10.28;59.74;100654.91;4316467;33;20366;-86
2023/01/02 04:34:14;;;;;;;187.05;29.20;;;;;;;10.31;59.74;100657.47;4316631;33;20090;-87
2023/01/02 04:36:40;;;;;;;131.45;25.88;;;;;;;10.55;59.76;100665.75;4308863;33;20092;-86
2023/01/02 04:39:05;;;;;;;108.72;28.45;;;;;;;10.58;59.76;100657.87;4307860;33;20127;-87
2023/01/02 04:41:31;;;;;;;159.85;28.73;;;;;;;10.31;59.75;100669.62;4297428;33;20107;-86
2023/01/02 04:43:57;;;;;;;225.98;30.27;;;;;;;10.19;59.75;100670.66;4306976;33;20143;-87
2023/01/02 04:46:22;;;;;;;116.20;28.40;;;;;;;10.38;59.75;100666.03;4333330;33;20107;-87
2023/01/02 04:48:48;;;;;;;163.75;29.45;;;;;;;10.24;59.74;100670.59;4311533;33;20079;-87
2023/01/02 04:51:13;;;;;;;111.75;26.05;;;;;;;10.32;59.76;100672.19;4320673;33;20131;-86
2023/01/02 04:53:38;;;;;;;89.40;26.30;;;;;;;10.37;59.75;100669.50;4309932;33;20201;-87
2023/01/02 04:56:04;;;;;;;91.85;26.98;;;;;;;10.33;59.76;100662.62;4285401;33;20151;-86
2023/01/02 04:58:30;;;;;;;83.93;28.35;;;;;;;10.18;59.74;100673.28;4306480;33;20107;-85
2023/01/02 05:00:55;;;;;;;76.03;24.10;;;;;;;10.35;59.75;100668.69;4297186;33;20562;-85
2023/01/02 05:03:20;;;;;;;101.00;27.15;;;;;;;10.24;59.74;100675.81;4318891;33;20164;-85
2023/01/02 05:05:46;;;;;;;59.10;25.25;;;;;;;10.30;59.74;100678.31;4314027;33;20599;-86
2023/01/02 05:08:11;;;;;;;62.42;24.90;;;;;;;10.28;59.74;100678.34;4315996;33;20140;-85
2023/01/02 05:10:37;;;;;;;65.15;23.73;;;;;;;10.18;59.74;100663.72;4319086;33;20426;-85
2023/01/02 05:13:02;;;;;;;83.85;26.02;;;;;;;10.23;59.74;100667.16;4320816;33;23013;-85
2023/01/02 05:15:27;;;;;;;94.40;25.02;;;;;;;10.32;59.75;100660.91;4309347;33;20092;-86
2023/01/02 05:17:53;;;;;;;129.80;26.87;;;;;;;10.29;59.74;100669.66;4311897;33;20175;-87
2023/01/02 05:20:18;;;;;;;154.82;26.33;;;;;;;10.16;59.75;100663.72;4295054;33;20274;-86
2023/01/02 05:25:30;;;;;;;91.10;26.50;;;;;;;10.24;59.74;100673.22;4325690;33;20172;-86
2023/01/02 05:27:56;;;;;;;104.82;25.95;;;;;;;10.23;59.74;100666.28;4296084;33;20118;-86
2023/01/02 05:30:21;;;;;;;90.28;24.48;;;;;;;10.03;59.74;100657.00;4313004;33;20112;-85
2023/01/02 05:32:47;;;;;;;77.60;25.58;;;;;;;10.30;59.75;100660.94;4290490;33;20112;-85
2023/01/02 05:35:12;;;;;;;78.53;24.27;;;;;;;9.94;59.72;100666.72;4297515;33;20405;-86
2023/01/02 05:37:38;;;;;;;74.72;24.42;;;;;;;9.98;59.73;100670.97;4309890;33;20167;-85
2023/01/02 05:40:03;;;;;;;76.22;24.90;;;;;;;10.14;59.73;100667.25;4319937;33;20158;-84
2023/01/02 05:42:29;;;;;;;86.95;24.87;;;;;;;10.23;59.74;100674.09;4309857;33;20128;-85
2023/01/02 05:44:54;;;;;;;68.22;25.02;;;;;;;10.23;59.74;100667.16;4304354;33;20414;-85
2023/01/02 05:47:20;;;;;;;85.25;25.60;;;;;;;10.26;59.75;100663.63;4317745;33;20152;-85
2023/01/02 05:49:45;;;;;;;85.60;24.27;;;;;;;10.12;59.74;100658.59;4319179;33;20517;-85
2023/01/02 05:52:11;;;;;;;80.87;23.48;;;;;;;10.14;59.73;100662.91;4329741;33;20171;-86
2023/01/02 05:54:36;;;;;;;83.72;22.80;;;;;;;10.08;59.73;100665.59;4324607;33;20114;-87
2023/01/02 05:57:02;;;;;;;126.80;23.73;;;;;;;10.21;59.74;100663.72;4318255;33;20155;-85
2023/01/02 05:59:27;;;;;;;88.32;22.50;;;;;;;10.27;59.74;100660.16;4297233;33;20176;-85
2023/01/02 06:01:52;;;;;;;63.58;21.75;;;;;;;10.18;59.74;100662.88;4316574;33;20131;-86
2023/01/02 06:04:18;;;;;;;83.32;22.95;;;;;;;10.08;59.73;100663.00;4324325;33;20140;-85
2023/01/02 06:06:43;;;;;;;72.62;22.85;;;;;;;10.25;59.75;100667.97;4292846;33;20151;-85
2023/01/02 06:09:11;;;;;;;81.18;23.02;;;;;;;10.21;59.74;100668.91;4309343;33;20378;-86
2023/01/02 06:11:36;;;;;;;76.87;21.92;;;;;;;10.18;59.74;100662.88;4316524;33;20155;-84
2023/01/02 06:14:02;;;;;;;64.20;22.08;;;;;;;10.18;59.74;100665.47;4310881;33;20152;-82
2023/01/02 06:16:27;;;;;;;80.82;22.10;;;;;;;10.20;59.74;100664.56;4302098;33;20130;-85
2023/01/02 06:18:53;;;;;;;76.75;21.58;;;;;;;10.18;59.75;100663.72;4307001;33;20183;-85
2023/01/02 06:21:19;;;;;;;69.35;20.67;;;;;;;10.05;59.74;100665.66;4318861;33;20168;-85
2023/01/02 06:23:46;;;;;;;69.85;22.50;;;;;;;10.15;59.73;100661.16;4283493;33;20404;-85
2023/01/02 06:26:16;;;;;;;79.85;20.75;;;;;;;10.11;59.74;100660.34;4309233;33;20100;-86
2023/01/02 06:28:41;;;;;;;60.90;21.12;;;;;;;9.98;59.73;100663.19;4312988;33;20112;-86
2023/01/02 06:31:12;;;;;;;57.83;21.00;;;;;;;9.97;59.73;100667.53;4301934;33;20122;-85
2023/01/02 06:33:38;;;;;;;69.07;21.85;;;;;;;10.02;59.73;100663.09;4331279;33;20092;-86
2023/01/02 06:36:06;;;;;;;69.05;22.40;;;;;;;9.95;59.73;100666.69;4319042;33;20145;-85
2023/01/02 06:38:31;;;;;;;63.58;21.60;;;;;;;9.89;59.73;100671.09;4319000;33;20445;-85
2023/01/02 06:40:58;;;;;;;71.50;20.98;;;;;;;10.03;59.73;100670.03;4307286;33;20136;-85
2023/01/02 06:43:23;;;;;;;69.60;22.08;;;;;;;10.11;59.74;100667.28;4285199;33;20096;-84
2023/01/02 06:45:49;;;;;;;58.40;19.87;;;;;;;10.00;59.73;100669.22;4316532;33;20096;-84
2023/01/02 06:48:15;;;;;;;67.82;22.50;;;;;;;10.05;59.74;100668.25;4292571;33;20421;-85
2023/01/02 06:50:40;;;;;;;59.90;19.60;;;;;;;10.02;59.73;100673.50;4306383;33;20163;-85
2023/01/02 06:53:06;;;;;;;63.72;21.27;;;;;;;10.12;59.74;100669.00;4323881;33;20110;-85
2023/01/02 06:55:31;;;;;;;72.07;21.48;;;;;;;10.17;59.73;100667.19;4314170;33;20136;-86
2023/01/02 06:57:57;;;;;;;90.32;22.95;;;;;;;10.11;59.74;100669.88;4311253;33;20115;-85
2023/01/02 07:00:22;;;;;;;72.97;21.65;;;;;;;10.18;59.74;100673.28;4301796;33;20155;-85
2023/01/02 07:02:47;;;;;;;91.07;21.02;;;;;;;10.19;59.75;100678.47;4311878;33;20190;-85
2023/01/02 07:05:13;;;;;;;57.15;21.67;;;;;;;10.20;59.74;100680.19;4321460;33;20215;-85
2023/01/02 07:07:38;;;;;;;80.68;21.83;;;;;;;10.08;59.73;100678.59;4311157;33;20170;-84
2023/01/02 07:10:04;;;;;;;58.22;21.02;;;;;;;10.25;59.75;100681.00;4305152;33;20108;-84
2023/01/02 07:12:29;;;;;;;75.22;21.80;;;;;;;10.18;59.74;100687.16;4310063;33;20116;-85
2023/01/02 07:14:55;;;;;;;71.37;21.75;;;;;;;10.10;59.74;100686.38;4318705;33;20084;-86
2023/01/02 07:17:20;;;;;;;68.47;21.83;;;;;;;10.21;59.74;100691.47;4313374;33;20137;-85
2023/01/02 07:19:46;;;;;;;83.22;21.52;;;;;;;10.27;59.75;100688.78;4287500;33;20155;-85
2023/01/02 07:22:11;;;;;;;68.53;21.67;;;;;;;10.20;59.74;100687.97;4304115;33;20608;-85
2023/01/02 07:24:37;;;;;;;59.85;21.70;;;;;;;10.24;59.75;100697.47;4313679;33;20147;-86
2023/01/02 07:27:03;;;;;;;63.08;21.55;;;;;;;10.16;59.73;100691.47;4283188;33;20108;-86
2023/01/02 07:29:28;;;;;;;64.87;21.95;;;;;;;10.15;59.74;100697.56;4309097;33;20512;-83
2023/01/02 07:31:53;;;;;;;94.37;21.65;;;;;;;10.23;59.74;100695.75;4312297;33;23458;-85
2023/01/02 07:34:19;;;;;;;76.20;21.62;;;;;;;10.16;59.75;100694.94;4327226;33;20131;-85
2023/01/02 07:36:44;;;;;;;68.53;21.00;;;;;;;10.29;59.74;100698.25;4306322;33;20112;-85
2023/01/02 07:39:10;;;;;;;74.12;22.52;;;;;;;10.31;59.74;100699.09;4329369;33;20108;-85
2023/01/02 07:41:35;;;;;;;81.05;22.05;;;;;;;10.25;59.75;100693.12;4316069;33;20092;-85
2023/01/02 07:44:00;;;;;;;90.85;22.23;;;;;;;10.26;59.75;100692.25;4290302;33;20185;-85
2023/01/02 07:46:26;;;;;;;80.62;23.10;;;;;;;10.25;59.75;100694.00;4312139;33;20127;-86
2023/01/02 07:48:51;;;;;;;94.43;22.83;;;;;;;10.28;59.74;100687.87;4312229;33;20100;-85
2023/01/02 07:51:17;;;;;;;57.47;22.90;;;;;;;10.20;59.74;100692.31;4297809;33;20087;-84
2023/01/02 07:53:42;;;;;;;67.50;21.90;;;;;;;10.05;59.73;100688.19;4319676;33;20523;-86
2023/01/02 07:56:08;;;;;;;62.25;22.05;;;;;;;10.07;59.73;100697.69;4295828;33;20442;-85
2023/01/02 07:58:33;;;;;;;68.20;22.20;;;;;;;10.06;59.74;100695.97;4303473;33;20160;-85
2023/01/02 08:01:04;;;;;;;64.55;23.02;;;;;;;10.22;59.74;100693.19;4295985;33;20092;-85
2023/01/02 08:03:30;;;;;;;56.37;23.77;;;;;;;10.28;59.75;100690.47;4301324;33;20111;-85
2023/01/02 08:06:11;;;;;;;74.85;24.05;;;;;;;10.29;59.74;100692.19;4296161;33;20343;-86
2023/01/02 08:08:36;;;;;;;59.08;23.17;;;;;;;10.44;59.76;100692.81;4301063;33;20130;-85
2023/01/02 08:11:09;;;;;;;69.00;22.45;;;;;;;10.20;59.74;100693.19;4305012;33;20139;-86
2023/01/02 08:13:35;;;;;;;62.00;23.00;;;;;;;10.23;59.74;100694.91;4315240;33;20430;-85
2023/01/02 08:16:11;;;;;;;52.78;21.15;;;;;;;10.28;59.74;100693.09;4286481;33;20103;-85
2023/01/02 08:18:37;;;;;;;58.42;22.60;;;;;;;10.43;59.75;100688.50;4308092;33;20706;-86
2023/01/02 08:21:02;;;;;;;50.78;22.52;;;;;;;10.39;59.75;100688.56;4312095;33;20134;-84
2023/01/02 08:23:28;;;;;;;58.25;22.40;;;;;;;10.42;59.76;100683.31;4292440;33;20119;-84
2023/01/02 08:25:57;;;;;;;54.08;22.70;;;;;;;10.51;59.76;100685.75;4307955;33;20139;-85
2023/01/02 08:28:23;;;;;;;51.78;23.20;;;;;;;10.48;59.76;100683.22;4332427;33;20091;-85
2023/01/02 08:30:48;;;;;;;48.75;21.73;;;;;;;10.29;59.74;100687.84;4331970;33;20159;-85
2023/01/02 08:33:13;;;;;;;53.35;22.52;;;;;;;10.43;59.75;100695.47;4306268;33;20398;-86
2023/01/02 08:35:39;;;;;;;50.90;22.50;;;;;;;10.46;59.75;100687.59;4317595;33;20502;-85
2023/01/02 08:38:04;;;;;;;48.55;21.75;;;;;;;10.53;59.75;100690.94;4302732;33;21607;-85
2023/01/02 08:40:30;;;;;;;48.20;22.48;;;;;;;10.61;59.76;100697.72;4305223;33;20126;-85
2023/01/02 08:42:55;;;;;;;50.55;21.17;;;;;;;10.62;59.76;100689.03;4292535;33;21777;-84
2023/01/02 08:45:20;;;;;;;49.03;22.02;;;;;;;10.52;59.75;100690.09;4295705;33;20112;-85
2023/01/02 08:47:46;;;;;;;46.97;21.30;;;;;;;10.59;59.76;100706.44;4322035;33;20192;-85
2023/01/02 08:50:11;;;;;;;47.67;20.60;;;;;;;10.58;59.76;100700.38;4322783;33;20361;-84
2023/01/02 08:52:37;;;;;;;58.63;22.40;;;;;;;10.73;59.77;100704.50;4292592;33;20164;-85
2023/01/02 08:55:04;;;;;;;52.15;22.02;;;;;;;10.75;59.77;100700.09;4310318;33;20146;-85
2023/01/02 08:57:30;;;;;;;46.35;21.15;;;;;;;10.66;59.76;100698.53;4308813;33;20150;-85
2023/01/02 08:59:55;;;;;;;60.88;24.17;;;;;;;10.54;59.75;100706.53;4310650;33;21002;-84
2023/01/02 09:02:21;;;;;;;50.85;21.08;;;;;;;10.62;59.76;100706.41;4332672;33;20112;-85
2023/01/02 09:04:46;;;;;;;51.37;22.25;;;;;;;10.83;59.77;100700.81;4332106;33;20177;-85
2023/01/02 09:07:12;;;;;;;51.42;23.12;;;;;;;10.84;59.77;100694.72;4319449;33;20195;-84
2023/01/02 09:09:38;;;;;;;52.38;22.42;;;;;;;10.97;59.78;100695.38;4318711;33;20715;-84
2023/01/02 09:12:04;;;;;;;46.20;21.62;;;;;;;11.09;59.79;100692.53;4312855;33;20100;-85
2023/01/02 09:14:29;;;;;;;55.15;22.15;;;;;;;10.94;59.78;100698.91;4323582;33;20146;-83
2023/01/02 09:16:56;;;;;;;52.17;24.40;;;;;;;10.97;59.78;100692.78;4294230;33;20133;-83
2023/01/02 09:19:23;;;;;;;52.38;21.20;;;;;;;10.94;59.79;100690.22;4300162;33;20100;-85
2023/01/02 09:21:48;;;;;;;51.72;23.55;;;;;;;11.03;59.79;100687.44;4314652;33;20091;-84
2023/01/02 09:24:14;;;;;;;49.58;21.50;;;;;;;10.99;59.79;100680.56;4300678;33;20231;-84
2023/01/02 09:26:42;;;;;;;50.78;22.30;;;;;;;10.94;59.78;100690.22;4329844;33;20119;-85
2023/01/02 09:29:09;;;;;;;50.10;21.48;;;;;;;11.02;59.79;100690.94;4310565;33;20093;-82
2023/01/02 09:31:34;;;;;;;46.13;20.25;;;;;;;10.98;59.78;100689.28;4293403;33;20100;-83
2023/01/02 09:33:59;;;;;;;43.30;20.45;;;;;;;10.91;59.77;100680.72;4303506;33;108914;-83
2023/01/02 09:36:25;;;;;;;59.05;24.27;;;;;;;10.81;59.77;100675.69;4318502;33;20111;-85
2023/01/02 09:38:55;;;;;;;55.40;20.90;;;;;;;10.86;59.78;100679.06;4318933;33;20096;-84
2023/01/02 09:41:20;;;;;;;53.42;21.27;;;;;;;10.74;59.77;100669.75;4321479;33;20563;-85
2023/01/02 09:43:55;;;;;;;46.45;21.08;;;;;;;10.90;59.78;100668.59;4309326;33;20134;-84
2023/01/02 09:46:47;;;;;;;47.55;20.77;;;;;;;10.79;59.77;100667.06;4296072;33;20108;-84
2023/01/02 09:49:20;;;;;;;60.90;21.80;;;;;;;10.88;59.78;100664.28;4328372;33;20425;-85
2023/01/02 09:51:45;;;;;;;59.78;20.17;;;;;;;10.87;59.78;100662.56;4328627;33;20135;-86
2023/01/02 09:54:18;;;;;;;66.30;20.95;;;;;;;10.90;59.78;100654.72;4304018;33;20108;-85
2023/01/02 09:56:45;;;;;;;40.40;18.73;;;;;;;10.82;59.77;100657.44;4304966;33;20139;-87
2023/01/02 09:59:21;;;;;;;54.35;22.52;;;;;;;10.65;59.76;100649.09;4309957;33;20091;-84
2023/01/02 10:02:01;;;;;;;53.35;21.30;;;;;;;10.81;59.77;100647.91;4329405;33;20155;-85
2023/01/02 10:04:35;;;;;;;57.88;21.58;;;;;;;10.92;59.78;100648.56;4304188;33;20130;-85
2023/01/02 10:07:08;;;;;;;46.55;20.67;;;;;;;10.89;59.78;100651.25;4318060;33;20129;-83
2023/01/02 10:09:56;;;;;;;53.75;21.12;;;;;;;10.98;59.78;100643.25;4331086;33;20079;-85
2023/01/02 10:12:29;;;;;;;44.60;19.87;;;;;;;11.05;59.78;100638.75;4292586;33;20118;-85
2023/01/02 10:15:02;;;;;;;54.05;20.75;;;;;;;11.14;59.79;100643.81;4291086;33;20183;-84
2023/01/02 10:17:30;;;;;;;50.33;21.55;;;;;;;11.18;59.79;100645.47;4319106;33;20413;-84
2023/01/02 10:20:07;;;;;;;58.33;23.70;;;;;;;11.01;59.79;100637.97;4308544;33;20111;-85
2023/01/02 10:22:41;;;;;;;47.38;21.30;;;;;;;10.96;59.78;100638.94;4286237;33;20147;-85
2023/01/02 10:25:15;;;;;;;54.47;22.62;;;;;;;10.96;59.78;100631.13;4315597;33;20584;-84
2023/01/02 10:27:53;;;;;;;48.28;22.00;;;;;;;11.00;59.79;100631.03;4313765;33;20127;-83
2023/01/02 10:30:23;;;;;;;52.17;22.48;;;;;;;10.97;59.78;100625.03;4308129;33;20088;-85
2023/01/02 10:32:54;;;;;;;40.65;20.58;;;;;;;11.02;59.79;100616.25;4305300;33;20092;-83
2023/01/02 10:35:35;;;;;;;48.15;22.17;;;;;;;11.10;59.79;100621.28;4288007;33;20134;-85
2023/01/02 10:38:00;;;;;;;49.33;20.98;;;;;;;11.15;59.79;100619.47;4305096;33;20104;-85
2023/01/02 10:40:26;;;;;;;57.60;23.25;;;;;;;11.04;59.78;100622.28;4313205;33;20132;-85
2023/01/02 10:42:52;;;;;;;45.35;21.75;;;;;;;11.22;59.79;100608.00;4327738;33;20450;-85
2023/01/02 10:45:18;;;;;;;45.05;21.05;;;;;;;11.24;59.80;100611.44;4287532;33;20127;-86
2023/01/02 10:47:43;;;;;;;49.53;21.48;;;;;;;11.30;59.81;100598.28;4317402;33;20187;-85
2023/01/02 10:50:24;;;;;;;52.10;23.90;;;;;;;11.31;59.81;100592.16;4331662;33;20200;-85
2023/01/02 10:52:51;;;;;;;45.17;20.40;;;;;;;11.26;59.80;100591.41;4304738;33;20107;-84
2023/01/02 10:55:32;;;;;;;46.92;21.60;;;;;;;11.28;59.80;100587.03;4315288;33;20115;-84
2023/01/02 10:58:04;;;;;;;46.10;20.67;;;;;;;11.47;59.81;100581.41;4323274;33;20493;-84
2023/01/02 11:00:31;;;;;;;47.03;21.87;;;;;;;11.60;59.81;100580.28;4291117;33;20151;-85
2023/01/02 11:03:06;;;;;;;45.90;21.62;;;;;;;11.60;59.83;100580.28;4304057;33;20061;-85
2023/01/02 11:05:31;;;;;;;49.08;22.23;;;;;;;11.75;59.83;100582.50;4318624;33;20104;-84
2023/01/02 11:07:57;;;;;;;47.97;21.05;;;;;;;11.83;59.83;100578.00;4321479;33;20120;-84
2023/01/02 11:10:28;;;;;;;43.13;20.48;;;;;;;11.87;59.83;100563.13;4297167;33;20100;-84
2023/01/02 11:12:53;;;;;;;40.58;20.00;;;;;;;11.94;59.83;100570.75;4308315;33;20114;-84
2023/01/02 11:15:24;;;;;;;44.90;23.15;;;;;;;12.12;59.85;100576.44;4327686;33;20092;-85
2023/01/02 11:17:49;;;;;;;41.53;20.12;;;;;;;12.17;59.85;100562.37;4291498;33;20133;-84
2023/01/02 11:20:25;;;;;;;39.80;19.20;;;;;;;12.18;59.85;100558.84;4317697;33;20083;-86